createdAt,value
2022-08-21T00:02:28.985Z,0.00
2022-08-21T00:07:28.855Z,0.00
2022-08-21T00:12:28.789Z,0.00
2022-08-21T00:17:28.726Z,0.00
2022-08-21T00:22:28.660Z,0.00
2022-08-21T00:27:28.595Z,0.00
2022-08-21T00:32:28.540Z,0.00
2022-08-21T00:37:28.457Z,0.00
2022-08-21T00:42:28.408Z,0.00
2022-08-21T00:47:28.336Z,0.00
2022-08-21T00:52:28.285Z,0.00
2022-08-21T00:57:28.193Z,0.00
2022-08-21T01:02:28.138Z,0.00
2022-08-21T01:07:28.068Z,0.00
2022-08-21T01:12:28.010Z,0.00
2022-08-21T01:17:27.948Z,0.00
2022-08-21T01:22:27.891Z,0.00
2022-08-21T01:27:27.810Z,0.00
2022-08-21T01:32:27.760Z,0.00
2022-08-21T01:37:27.677Z,0.00
2022-08-21T01:42:27.625Z,0.00
2022-08-21T01:47:27.553Z,0.00
2022-08-21T01:52:27.493Z,0.00
2022-08-21T01:57:27.425Z,0.00
2022-08-21T02:02:27.370Z,0.00
2022-08-21T02:07:27.304Z,0.00
2022-08-21T02:12:27.246Z,0.00
2022-08-21T02:17:27.185Z,0.00
2022-08-21T02:22:27.117Z,0.00
2022-08-21T02:27:27.636Z,0.00
2022-08-21T02:32:27.186Z,0.00
2022-08-21T02:37:26.931Z,0.00
2022-08-21T02:42:26.871Z,0.00
2022-08-21T02:47:26.794Z,0.00
2022-08-21T02:52:26.747Z,0.00
2022-08-21T02:57:26.675Z,0.00
2022-08-21T03:02:26.783Z,0.00
2022-08-21T03:07:26.532Z,0.00
2022-08-21T03:12:27.798Z,0.00
2022-08-21T03:17:29.968Z,0.00
2022-08-21T03:22:26.351Z,0.00
2022-08-21T03:27:26.296Z,0.00
2022-08-21T03:32:26.235Z,0.00
2022-08-21T03:37:26.163Z,0.00
2022-08-21T03:42:26.108Z,4.00
2022-08-21T03:47:26.025Z,8.00
2022-08-21T03:52:25.973Z,16.00
2022-08-21T03:57:25.907Z,44.00
2022-08-21T04:02:25.841Z,84.00
2022-08-21T04:07:25.773Z,140.00
2022-08-21T04:12:25.714Z,224.00
2022-08-21T04:17:25.655Z,340.00
2022-08-21T04:22:25.589Z,484.00
2022-08-21T04:27:25.528Z,620.00
2022-08-21T04:32:25.461Z,724.00
2022-08-21T04:37:25.401Z,760.00
2022-08-21T04:42:25.343Z,844.00
2022-08-21T04:47:41.619Z,856.00
2022-08-21T04:52:26.241Z,876.00
2022-08-21T04:57:25.125Z,932.00
2022-08-21T05:02:26.108Z,1076.00
2022-08-21T05:07:42.288Z,1204.00
2022-08-21T05:12:25.979Z,1560.00
2022-08-21T05:17:24.869Z,1632.00
2022-08-21T05:22:24.814Z,1776.00
2022-08-21T05:27:24.744Z,1932.00
2022-08-21T05:32:24.684Z,2032.00
2022-08-21T05:37:24.618Z,2024.00
2022-08-21T05:42:24.550Z,2356.00
2022-08-21T05:47:24.486Z,3068.00
2022-08-21T05:52:24.431Z,3868.00
2022-08-21T05:57:24.348Z,4312.00
2022-08-21T06:02:24.298Z,4816.00
2022-08-21T06:07:24.231Z,5412.00
2022-08-21T06:12:24.161Z,7216.00
2022-08-21T06:17:24.092Z,8640.00
2022-08-21T06:22:24.106Z,7808.00
2022-08-21T06:27:26.663Z,7212.00
2022-08-21T06:32:23.919Z,7832.00
2022-08-21T06:37:23.841Z,8092.00
2022-08-21T06:42:26.905Z,6384.00
2022-08-21T06:47:23.719Z,6948.00
2022-08-21T06:52:23.659Z,8156.00
2022-08-21T06:57:23.692Z,6780.00
2022-08-21T07:02:23.519Z,6908.00
2022-08-21T07:07:23.437Z,8192.00
2022-08-21T07:12:23.374Z,11816.00
2022-08-21T07:17:23.301Z,10476.00
2022-08-21T07:22:23.242Z,12076.00
2022-08-21T07:27:23.175Z,15908.00
2022-08-21T07:32:23.109Z,13760.00
2022-08-21T07:37:23.036Z,23360.00
2022-08-21T07:42:22.974Z,39648.00
2022-08-21T07:47:29.564Z,46304.00
2022-08-21T07:52:23.869Z,42272.00
2022-08-21T07:57:22.779Z,50208.00
2022-08-21T08:02:22.713Z,54432.00
2022-08-21T08:07:22.652Z,50112.00
2022-08-21T08:12:22.591Z,34464.00
2022-08-21T08:17:22.510Z,64192.00
2022-08-21T08:22:22.466Z,63840.00
2022-08-21T08:27:22.381Z,54240.00
2022-08-21T08:32:22.326Z,37056.00
2022-08-21T08:37:22.262Z,28960.00
2022-08-21T08:42:32.764Z,37632.00
2022-08-21T08:47:23.169Z,46432.00
2022-08-21T08:52:22.091Z,27232.00
2022-08-21T08:57:22.019Z,52480.00
2022-08-21T09:02:21.996Z,49344.00
2022-08-21T09:07:21.957Z,48960.00
2022-08-21T09:12:21.825Z,59616.00
2022-08-21T09:17:21.767Z,31424.00
2022-08-21T09:22:21.752Z,39904.00
2022-08-21T09:27:21.626Z,44320.00
2022-08-21T09:32:21.565Z,34688.00
2022-08-21T09:37:21.493Z,35232.00
2022-08-21T09:42:21.447Z,23520.00
2022-08-21T09:47:26.233Z,46304.00
2022-08-21T09:52:21.309Z,23072.00
2022-08-21T09:57:21.247Z,49376.00
2022-08-21T10:02:21.191Z,53472.00
2022-08-21T10:07:21.118Z,50400.00
2022-08-21T10:12:21.053Z,52800.00
2022-08-21T10:17:20.984Z,56640.00
2022-08-21T10:22:20.935Z,56896.00
2022-08-21T10:27:21.014Z,57344.00
2022-08-21T10:32:26.250Z,62208.00
2022-08-21T10:37:20.735Z,58272.00
2022-08-21T10:42:22.663Z,57600.00
2022-08-21T10:47:20.597Z,58336.00
2022-08-21T10:52:20.543Z,55008.00
2022-08-21T10:57:32.109Z,56800.00
2022-08-21T11:02:21.448Z,54272.00
2022-08-21T11:07:20.353Z,46080.00
2022-08-21T11:12:20.285Z,35392.00
2022-08-21T11:17:22.149Z,34016.00
2022-08-21T11:22:20.153Z,29536.00
2022-08-21T11:27:20.085Z,26976.00
2022-08-21T11:32:20.035Z,22816.00
2022-08-21T11:37:19.953Z,15236.00
2022-08-21T11:42:19.907Z,12148.00
2022-08-21T11:47:19.824Z,9908.00
2022-08-21T11:52:19.769Z,19136.00
2022-08-21T11:57:19.696Z,19328.00
2022-08-21T12:02:19.696Z,15644.00
2022-08-21T12:07:19.582Z,11776.00
2022-08-21T12:12:19.513Z,11392.00
2022-08-21T12:17:20.456Z,10280.00
2022-08-21T12:22:19.390Z,10680.00
2022-08-21T12:27:19.321Z,10092.00
2022-08-21T12:32:19.273Z,8996.00
2022-08-21T12:37:19.198Z,8756.00
2022-08-21T12:42:19.138Z,9872.00
2022-08-21T12:47:19.065Z,10336.00
2022-08-21T12:52:19.005Z,9720.00
2022-08-21T12:57:18.932Z,9692.00
2022-08-21T13:02:18.976Z,8852.00
2022-08-21T13:07:19.056Z,7520.00
2022-08-21T13:12:18.754Z,7824.00
2022-08-21T13:17:23.453Z,8212.00
2022-08-21T13:22:34.075Z,7784.00
2022-08-21T13:27:19.584Z,7808.00
2022-08-21T13:32:18.503Z,7728.00
2022-08-21T13:37:18.425Z,7656.00
2022-08-21T13:42:18.424Z,7456.00
2022-08-21T13:47:18.342Z,7684.00
2022-08-21T13:52:18.242Z,7348.00
2022-08-21T13:57:18.182Z,8292.00
2022-08-21T14:02:18.112Z,8436.00
2022-08-21T14:07:18.050Z,7996.00
2022-08-21T14:12:23.375Z,8032.00
2022-08-21T14:17:24.598Z,7744.00
2022-08-21T14:22:17.858Z,7092.00
2022-08-21T14:27:17.785Z,5432.00
2022-08-21T14:32:21.880Z,5168.00
2022-08-21T14:37:17.657Z,5232.00
2022-08-21T14:42:17.597Z,6300.00
2022-08-21T14:47:17.520Z,5972.00
2022-08-21T14:52:17.467Z,5988.00
2022-08-21T14:57:17.393Z,6176.00
2022-08-21T15:02:17.339Z,5172.00
2022-08-21T15:07:17.256Z,5056.00
2022-08-21T15:12:17.207Z,5484.00
2022-08-21T15:17:17.132Z,5056.00
2022-08-21T15:22:18.972Z,5472.00
2022-08-21T15:27:16.986Z,4984.00
2022-08-21T15:32:16.929Z,4668.00
2022-08-21T15:37:16.852Z,4260.00
2022-08-21T15:42:16.793Z,4064.00
2022-08-21T15:47:16.731Z,4056.00
2022-08-21T15:52:16.665Z,4028.00
2022-08-21T15:57:16.592Z,3928.00
2022-08-21T16:02:16.545Z,3732.00
2022-08-21T16:07:16.462Z,3616.00
2022-08-21T16:12:16.393Z,3520.00
2022-08-21T16:17:16.317Z,3444.00
2022-08-21T16:22:16.262Z,3352.00
2022-08-21T16:27:16.185Z,3268.00
2022-08-21T16:32:16.127Z,3224.00
2022-08-21T16:37:21.879Z,3140.00
2022-08-21T16:42:15.993Z,3056.00
2022-08-21T16:47:26.752Z,2952.00
2022-08-21T16:52:16.888Z,2848.00
2022-08-21T16:57:15.785Z,2732.00
2022-08-21T17:02:15.738Z,2616.00
2022-08-21T17:07:15.667Z,2492.00
2022-08-21T17:12:15.601Z,2376.00
2022-08-21T17:17:15.547Z,2244.00
2022-08-21T17:22:15.474Z,2100.00
2022-08-21T17:27:15.419Z,1948.00
2022-08-21T17:32:15.345Z,1784.00
2022-08-21T17:37:15.277Z,1624.00
2022-08-21T17:42:15.217Z,1456.00
2022-08-21T17:47:15.155Z,1272.00
2022-08-21T17:52:15.092Z,1080.00
2022-08-21T17:57:15.020Z,916.00
2022-08-21T18:02:20.146Z,728.00
2022-08-21T18:07:30.908Z,540.00
2022-08-21T18:12:15.865Z,380.00
2022-08-21T18:17:14.780Z,252.00
2022-08-21T18:22:14.727Z,156.00
2022-08-21T18:27:14.646Z,92.00
2022-08-21T18:32:30.463Z,52.00
2022-08-21T18:37:15.554Z,24.00
2022-08-21T18:42:14.466Z,12.00
2022-08-21T18:47:14.441Z,4.00
2022-08-21T18:52:17.766Z,0.00
2022-08-21T18:57:14.263Z,0.00
2022-08-21T19:02:14.198Z,0.00
2022-08-21T19:07:14.422Z,0.00
2022-08-21T19:12:14.760Z,0.00
2022-08-21T19:17:14.001Z,0.00
2022-08-21T19:22:13.939Z,0.00
2022-08-21T19:27:13.871Z,0.00
2022-08-21T19:32:13.807Z,0.00
2022-08-21T19:37:13.750Z,0.00
2022-08-21T19:42:13.676Z,0.00
2022-08-21T19:47:13.850Z,0.00
2022-08-21T19:52:13.957Z,0.00
2022-08-21T19:57:13.481Z,0.00
2022-08-21T20:02:13.419Z,0.00
2022-08-21T20:07:13.359Z,0.00
2022-08-21T20:12:13.277Z,0.00
2022-08-21T20:17:13.226Z,0.00
2022-08-21T20:22:13.181Z,0.00
2022-08-21T20:27:13.140Z,0.00
2022-08-21T20:32:13.017Z,0.00
2022-08-21T20:37:12.981Z,0.00
2022-08-21T20:42:12.889Z,0.00
2022-08-21T20:47:12.835Z,0.00
2022-08-21T20:57:14.144Z,0.00
2022-08-21T21:02:12.831Z,0.00
2022-08-21T21:07:12.584Z,0.00
2022-08-21T21:12:12.514Z,0.00
2022-08-21T21:17:12.446Z,0.00
2022-08-21T21:22:12.376Z,0.00
2022-08-21T21:27:12.329Z,0.00
2022-08-21T21:32:17.972Z,0.00
2022-08-21T21:37:12.189Z,0.00
2022-08-21T21:42:12.106Z,0.00
2022-08-21T21:47:12.055Z,0.00
2022-08-21T21:52:11.969Z,0.00
2022-08-21T21:57:11.909Z,0.00
2022-08-21T22:02:11.838Z,0.00
2022-08-21T22:07:11.792Z,0.00
2022-08-21T22:12:11.715Z,0.00
2022-08-21T22:17:11.647Z,0.00
2022-08-21T22:22:11.572Z,0.00
2022-08-21T22:27:11.533Z,0.00
2022-08-21T22:32:11.515Z,0.00
2022-08-21T22:37:11.392Z,0.00
2022-08-21T22:42:11.380Z,0.00
2022-08-21T22:47:11.279Z,0.00
2022-08-21T22:52:11.201Z,0.00
2022-08-21T22:57:11.149Z,0.00
2022-08-21T23:02:12.547Z,0.00
2022-08-21T23:07:11.010Z,0.00
2022-08-21T23:12:21.267Z,0.00
2022-08-21T23:22:11.853Z,0.00
2022-08-21T23:27:10.915Z,0.00
2022-08-21T23:32:10.888Z,0.00
2022-08-21T23:37:10.887Z,0.00
2022-08-21T23:42:10.915Z,0.00
2022-08-21T23:47:10.897Z,0.00
2022-08-21T23:52:10.881Z,0.00
2022-08-21T23:57:10.644Z,0.00
